Time;durP1;ratioP1;P1;durP2;ratioP2;P2;SDS_P1;SDS_P2;PMS_P1;PMS_P2;Temp;Humidity;BMP_temperature;BMP_pressure;BME280_temperature;BME280_humidity;BME280_pressure;Samples;Min_cycle;Max_cycle;Signal;HPM_P1;HPM_P2
2022/04/03 00:00:37;;;;;;;15.33;7.80;;;1.30;99.90;;;;;;10413055;28;20194;-88
2022/04/03 00:05:59;;;;;;;10.77;5.77;;;1.30;99.90;;;;;;10439422;28;20228;-89
2022/04/03 00:11:20;;;;;;;13.37;6.30;;;1.40;99.90;;;;;;10439198;28;20266;-89
2022/04/03 00:16:42;;;;;;;10.90;6.33;;;1.20;99.90;;;;;;10425467;28;20193;-89
2022/04/03 00:22:03;;;;;;;10.30;5.50;;;1.10;99.90;;;;;;10474735;28;20215;-89
2022/04/03 00:27:25;;;;;;;10.77;5.57;;;1.00;99.90;;;;;;10481411;28;20202;-85
2022/04/03 00:32:46;;;;;;;12.73;5.90;;;1.00;99.90;;;;;;10481389;28;20236;-86
2022/04/03 00:38:08;;;;;;;9.03;5.80;;;0.90;99.90;;;;;;10457350;28;20392;-78
2022/04/03 00:43:30;;;;;;;9.97;6.03;;;0.90;99.90;;;;;;10447943;28;20259;-78
2022/04/03 00:48:52;;;;;;;11.50;6.60;;;0.80;99.90;;;;;;10442801;28;20197;-80
2022/04/03 00:54:13;;;;;;;13.57;7.13;;;0.80;99.90;;;;;;10440674;28;20193;-87
2022/04/03 00:59:35;;;;;;;11.03;6.83;;;0.80;99.90;;;;;;10440302;28;20193;-87
2022/04/03 01:04:56;;;;;;;11.57;6.37;;;0.80;99.90;;;;;;10430918;28;20224;-89
2022/04/03 01:10:18;;;;;;;7.40;5.27;;;0.90;99.90;;;;;;10437769;28;20260;-89
2022/04/03 01:15:40;;;;;;;7.70;4.47;;;1.00;99.90;;;;;;10454081;28;20193;-78
2022/04/03 01:21:01;;;;;;;8.50;5.10;;;1.10;99.90;;;;;;10473618;28;20200;-82
2022/04/03 01:26:24;;;;;;;9.03;4.93;;;1.20;99.90;;;;;;10486085;28;20221;-90
2022/04/03 01:31:47;;;;;;;15.20;7.00;;;1.20;99.90;;;;;;10479046;28;20263;-90
2022/04/03 01:37:08;;;;;;;12.33;5.70;;;1.30;99.90;;;;;;10463901;28;20194;-78
2022/04/03 01:42:29;;;;;;;10.53;6.87;;;1.20;99.90;;;;;;10395947;28;20209;-89
2022/04/03 01:47:51;;;;;;;7.63;4.47;;;1.20;99.90;;;;;;10430708;28;20194;-82
2022/04/03 01:53:12;;;;;;;8.57;4.33;;;1.20;99.90;;;;;;10436252;28;20225;-83
2022/04/03 01:58:34;;;;;;;10.87;5.03;;;1.30;99.90;;;;;;10435684;28;20538;-81
2022/04/03 02:03:55;;;;;;;7.33;4.07;;;1.50;99.90;;;;;;10436871;28;20332;-76
2022/04/03 02:09:16;;;;;;;5.33;3.83;;;1.50;99.90;;;;;;10436809;28;20214;-81
2022/04/03 02:14:38;;;;;;;9.50;4.80;;;1.40;99.90;;;;;;10435666;28;20269;-78
2022/04/03 02:19:59;;;;;;;8.40;4.73;;;1.30;99.90;;;;;;10439741;28;20506;-76
2022/04/03 02:25:20;;;;;;;10.07;5.77;;;1.20;99.90;;;;;;10476072;28;20235;-79
2022/04/03 02:30:41;;;;;;;8.50;5.30;;;1.10;99.90;;;;;;10449455;28;20485;-80
2022/04/03 02:36:02;;;;;;;8.60;4.80;;;1.10;99.90;;;;;;10441858;28;20224;-77
2022/04/03 02:41:24;;;;;;;5.20;3.63;;;1.10;99.90;;;;;;10442396;28;20202;-89
2022/04/03 02:46:45;;;;;;;10.80;6.00;;;1.10;99.90;;;;;;10428728;28;20226;-83
2022/04/03 02:52:07;;;;;;;7.93;5.13;;;1.00;99.90;;;;;;10442272;28;20219;-92
2022/04/03 02:57:28;;;;;;;8.40;5.07;;;0.90;99.90;;;;;;10427094;28;20264;-82
2022/04/03 03:02:51;;;;;;;32.97;11.10;;;0.80;99.90;;;;;;10435640;28;20223;-90
2022/04/03 03:08:13;;;;;;;35.30;11.23;;;0.70;99.90;;;;;;10441775;28;20191;-85
2022/04/03 03:13:35;;;;;;;125.33;41.67;;;0.60;99.90;;;;;;10442339;28;20186;-90
2022/04/03 03:18:56;;;;;;;41.30;16.33;;;0.60;99.90;;;;;;10452350;28;20197;-84
2022/04/03 03:24:18;;;;;;;37.10;14.30;;;0.50;99.90;;;;;;10467741;28;20233;-79
2022/04/03 03:29:39;;;;;;;27.43;10.77;;;0.40;99.90;;;;;;10464879;28;20191;-85
2022/04/03 03:35:02;;;;;;;24.47;9.10;;;0.30;99.90;;;;;;10441468;28;20219;-76
2022/04/03 03:40:23;;;;;;;36.33;15.80;;;0.20;99.90;;;;;;10440888;28;20355;-78
2022/04/03 03:45:47;;;;;;;20.00;8.83;;;0.10;99.90;;;;;;10440666;28;20214;-83
2022/04/03 03:51:09;;;;;;;17.60;8.13;;;0.00;99.90;;;;;;10439851;28;20197;-76
2022/04/03 03:56:31;;;;;;;24.10;11.27;;;0.00;99.90;;;;;;10439559;28;20580;-80
2022/04/03 04:01:53;;;;;;;33.30;13.90;;;-0.10;99.90;;;;;;10424603;28;20235;-88
2022/04/03 04:07:15;;;;;;;45.80;15.60;;;-0.10;99.90;;;;;;10439693;28;20218;-78
2022/04/03 04:12:37;;;;;;;25.67;10.13;;;-0.10;99.90;;;;;;10440311;28;20194;-80
2022/04/03 04:18:00;;;;;;;16.63;6.93;;;-0.20;99.90;;;;;;10441116;28;20194;-86
2022/04/03 04:23:21;;;;;;;20.87;8.30;;;-0.30;99.90;;;;;;10479103;28;20596;-84
2022/04/03 04:28:47;;;;;;;27.33;12.40;;;-0.30;99.90;;;;;;10465632;28;20194;-76
2022/04/03 04:34:08;;;;;;;29.30;14.87;;;-0.30;99.90;;;;;;10438155;28;20194;-78
2022/04/03 04:39:31;;;;;;;36.17;17.23;;;-0.30;99.90;;;;;;10437027;28;20254;-83
2022/04/03 04:44:52;;;;;;;38.07;18.10;;;-0.40;99.90;;;;;;10438354;28;20224;-80
2022/04/03 04:50:15;;;;;;;31.07;14.17;;;-0.40;99.90;;;;;;10437120;28;20285;-80
2022/04/03 04:55:37;;;;;;;30.73;11.70;;;-0.40;99.90;;;;;;10436334;28;20260;-80
2022/04/03 05:00:58;;;;;;;27.17;10.83;;;-0.30;99.90;;;;;;10422950;28;20195;-80
2022/04/03 05:06:23;;;;;;;27.93;10.13;;;-0.20;99.90;;;;;;10403384;28;20514;-78
2022/04/03 05:11:49;;;;;;;23.77;7.03;;;0.00;99.90;;;;;;10432278;28;20261;-78
2022/04/03 05:17:11;;;;;;;10.90;5.77;;;0.30;99.90;;;;;;10452121;28;20193;-79
2022/04/03 05:22:32;;;;;;;14.77;7.20;;;0.60;99.90;;;;;;10476012;28;20277;-89
2022/04/03 05:27:54;;;;;;;11.73;6.27;;;0.90;99.90;;;;;;10470620;28;20193;-79
2022/04/03 05:33:16;;;;;;;10.70;5.83;;;1.10;99.90;;;;;;10444632;28;20239;-89
2022/04/03 05:38:37;;;;;;;14.37;8.23;;;1.20;99.90;;;;;;10458758;28;20193;-79
2022/04/03 05:43:58;;;;;;;14.33;6.87;;;1.10;99.90;;;;;;10460464;28;20226;-78
2022/04/03 05:49:20;;;;;;;17.23;7.13;;;1.10;99.90;;;;;;10439447;28;20217;-90
2022/04/03 05:54:42;;;;;;;11.37;5.20;;;1.20;99.90;;;;;;10438239;28;20240;-82
2022/04/03 06:00:12;;;;;;;7.80;4.40;;;1.30;99.90;;;;;;10436500;28;20188;-87
2022/04/03 06:05:34;;;;;;;26.97;14.07;;;1.40;99.90;;;;;;10424197;28;20301;-89
2022/04/03 06:10:55;;;;;;;52.90;30.93;;;1.40;99.90;;;;;;10445484;28;20194;-88
2022/04/03 06:16:16;;;;;;;20.77;11.97;;;1.40;99.90;;;;;;10444697;28;20194;-78
2022/04/03 06:21:38;;;;;;;9.37;4.83;;;1.60;99.90;;;;;;10477159;28;20250;-89
2022/04/03 06:26:59;;;;;;;8.00;4.13;;;1.70;99.90;;;;;;10482659;28;20524;-81
2022/04/03 06:32:20;;;;;;;10.70;4.50;;;1.80;99.90;;;;;;10389337;28;20275;-89
2022/04/03 06:37:42;;;;;;;8.97;4.57;;;1.80;99.90;;;;;;10404561;28;20206;-85
2022/04/03 06:43:04;;;;;;;8.63;5.30;;;1.90;99.90;;;;;;10444621;28;20270;-89
2022/04/03 06:48:28;;;;;;;11.07;5.77;;;3.90;99.70;;;;;;10444435;28;20190;-82
2022/04/03 06:53:50;;;;;;;5.63;3.23;;;6.20;92.60;;;;;;10444353;28;20266;-86
2022/04/03 06:59:11;;;;;;;7.27;2.50;;;8.10;69.30;;;;;;10443684;28;20284;-91
2022/04/03 07:04:33;;;;;;;6.00;2.37;;;9.40;51.80;;;;;;10408547;28;20244;-90
2022/04/03 07:09:54;;;;;;;5.90;2.90;;;10.40;43.90;;;;;;10402371;28;20279;-88
2022/04/03 07:15:16;;;;;;;8.35;2.55;;;10.90;38.70;;;;;;10401161;28;20273;-88
2022/04/03 07:20:37;;;;;;;3.42;1.90;;;11.60;35.20;;;;;;10448301;28;20396;-90
2022/04/03 07:25:59;;;;;;;4.25;2.00;;;12.30;32.30;;;;;;10482629;28;20230;-78
2022/04/03 07:31:21;;;;;;;3.35;1.73;;;12.70;29.70;;;;;;10442652;28;20208;-86
2022/04/03 07:36:43;;;;;;;3.42;1.63;;;13.20;27.00;;;;;;10441740;28;20210;-87
2022/04/03 07:42:04;;;;;;;3.22;2.60;;;12.70;26.90;;;;;;10440529;28;20209;-87
2022/04/03 07:47:26;;;;;;;4.27;2.90;;;11.40;24.20;;;;;;10440666;28;20219;-89
2022/04/03 07:52:48;;;;;;;8.07;3.93;;;9.80;27.60;;;;;;10442191;28;20192;-90
2022/04/03 07:58:09;;;;;;;10.87;4.60;;;9.10;30.00;;;;;;10435009;28;20271;-90
2022/04/03 08:03:30;;;;;;;7.60;3.70;;;8.20;29.10;;;;;;10432053;28;20258;-90
2022/04/03 08:08:52;;;;;;;6.20;3.13;;;8.00;30.80;;;;;;10400225;28;20242;-87
2022/04/03 08:14:14;;;;;;;5.47;2.73;;;10.10;29.20;;;;;;10427655;28;20195;-88
2022/04/03 08:19:35;;;;;;;4.57;2.70;;;10.30;27.70;;;;;;10440458;28;20189;-85
2022/04/03 08:24:56;;;;;;;4.30;2.47;;;9.40;29.40;;;;;;10480116;28;20234;-87
2022/04/03 08:30:26;;;;;;;3.53;1.90;;;9.50;27.00;;;;;;10445448;28;20202;-87
2022/04/03 08:35:50;;;;;;;7.67;3.40;;;9.30;27.20;;;;;;10439927;28;20271;-90
2022/04/03 08:41:12;;;;;;;4.53;1.90;;;9.50;27.60;;;;;;10439086;28;20208;-81
2022/04/03 08:46:33;;;;;;;4.33;2.63;;;11.10;26.40;;;;;;10409994;28;20231;-82
2022/04/03 08:51:54;;;;;;;8.03;4.33;;;11.40;24.90;;;;;;10438124;28;20197;-86
2022/04/03 08:57:16;;;;;;;8.53;3.50;;;10.10;23.70;;;;;;10438323;28;20237;-90
2022/04/03 09:02:37;;;;;;;6.10;2.87;;;9.30;25.80;;;;;;10439978;28;20197;-89
2022/04/03 09:08:01;;;;;;;3.00;2.27;;;8.50;27.80;;;;;;10397815;28;20467;-79
2022/04/03 09:13:24;;;;;;;9.77;4.00;;;8.20;29.30;;;;;;10397135;28;20199;-90
2022/04/03 09:18:52;;;;;;;15.23;6.90;;;8.40;27.70;;;;;;10414316;28;20188;-90
2022/04/03 09:24:14;;;;;;;4.40;2.13;;;8.20;27.60;;;;;;10443501;28;20251;-76
2022/04/03 09:29:35;;;;;;;8.63;2.37;;;7.70;29.30;;;;;;10438079;28;20223;-85
2022/04/03 09:34:57;;;;;;;3.53;2.47;;;7.60;29.80;;;;;;10438717;28;20475;-90
2022/04/03 09:40:31;;;;;;;4.17;2.30;;;7.90;29.80;;;;;;10438194;28;20254;-78
2022/04/03 09:45:58;;;;;;;4.57;2.87;;;8.40;30.10;;;;;;10462359;28;20224;-78
2022/04/03 09:51:19;;;;;;;2.53;1.60;;;8.30;29.40;;;;;;10463466;28;20213;-78
2022/04/03 09:56:41;;;;;;;8.97;3.57;;;7.90;30.00;;;;;;10445602;28;20437;-87
2022/04/03 10:02:02;;;;;;;10.70;3.77;;;7.70;29.80;;;;;;10450416;28;20196;-78
2022/04/03 10:07:24;;;;;;;6.73;3.20;;;7.60;30.20;;;;;;10420200;28;20398;-79
2022/04/03 10:12:46;;;;;;;8.70;4.37;;;7.90;30.10;;;;;;10415732;28;20229;-86
2022/04/03 10:18:08;;;;;;;9.63;3.03;;;7.80;30.50;;;;;;10409249;28;20184;-87
2022/04/03 10:23:31;;;;;;;8.17;4.37;;;7.50;31.30;;;;;;10454917;28;20224;-87
2022/04/03 10:28:56;;;;;;;8.93;3.20;;;7.20;33.00;;;;;;10447338;28;20232;-89
2022/04/03 10:34:21;;;;;;;5.93;3.10;;;6.90;37.70;;;;;;10444812;28;20195;-90
2022/04/03 10:39:43;;;;;;;6.33;3.13;;;6.80;40.20;;;;;;10449110;28;20230;-89
2022/04/03 10:45:11;;;;;;;10.90;4.20;;;7.00;40.10;;;;;;10431141;28;20230;-90
2022/04/03 10:51:05;;;;;;;6.47;2.83;;;7.30;35.60;;;;;;10446893;28;20208;-90
2022/04/03 10:56:28;;;;;;;7.13;2.70;;;9.10;32.30;;;;;;10443003;28;20494;-88
2022/04/03 11:01:50;;;;;;;2.57;1.70;;;10.00;28.20;;;;;;10444621;28;20194;-88
2022/04/03 11:07:14;;;;;;;4.20;2.00;;;9.70;27.00;;;;;;10408635;28;20223;-87
2022/04/03 11:12:54;;;;;;;6.87;2.97;;;8.90;28.00;;;;;;10405091;28;20202;-91
2022/04/03 11:18:33;;;;;;;4.93;2.80;;;8.20;28.00;;;;;;10411305;28;20560;-90
2022/04/03 11:24:21;;;;;;;7.03;3.57;;;8.00;28.00;;;;;;10482892;28;20218;-89
2022/04/03 11:29:42;;;;;;;5.90;1.70;;;8.00;28.20;;;;;;10483521;28;20205;-90
2022/04/03 11:35:04;;;;;;;3.47;1.23;;;8.70;26.30;;;;;;10460904;28;20490;-92
2022/04/03 11:40:25;;;;;;;3.20;1.60;;;10.60;23.50;;;;;;10441602;28;20226;-90
2022/04/03 11:45:54;;;;;;;7.37;4.60;;;10.40;22.40;;;;;;10441611;28;20233;-90
2022/04/03 11:51:18;;;;;;;16.30;6.63;;;9.40;22.30;;;;;;10441214;28;20191;-89
2022/04/03 11:56:43;;;;;;;10.83;4.77;;;8.60;24.30;;;;;;10440397;28;20230;-89
2022/04/03 12:02:14;;;;;;;5.67;3.20;;;8.80;23.90;;;;;;10448267;28;20196;-77
2022/04/03 12:07:36;;;;;;;5.27;3.23;;;8.40;24.90;;;;;;10402055;28;20217;-82
2022/04/03 12:12:58;;;;;;;5.33;2.63;;;8.10;26.80;;;;;;10408955;28;20287;-91
2022/04/03 12:18:21;;;;;;;5.70;2.57;;;8.00;26.60;;;;;;10444025;28;20475;-89
2022/04/03 12:24:05;;;;;;;5.67;2.70;;;8.90;25.00;;;;;;10440892;28;20194;-90
2022/04/03 12:29:32;;;;;;;10.30;3.70;;;9.00;24.10;;;;;;10442085;28;20374;-90
2022/04/03 12:34:53;;;;;;;15.27;4.87;;;8.50;25.50;;;;;;10440389;28;20196;-87
2022/04/03 12:40:16;;;;;;;9.53;4.40;;;7.90;27.20;;;;;;10439526;28;20507;-86
2022/04/03 12:45:37;;;;;;;8.37;2.83;;;7.80;28.80;;;;;;10438025;28;20266;-90
2022/04/03 12:51:08;;;;;;;4.70;2.20;;;7.60;28.80;;;;;;10412909;28;20257;-90
2022/04/03 12:58:24;;;;;;;6.63;2.13;;;8.00;28.30;;;;;;10425637;28;20231;-83
2022/04/03 13:02:11;;;;;;;7.20;3.10;;;9.00;27.00;;;;;;10441291;28;20197;-91
2022/04/03 13:07:32;;;;;;;4.70;1.70;;;9.20;25.70;;;;;;10388938;28;20406;-90
2022/04/03 13:12:54;;;;;;;6.10;2.33;;;9.40;25.70;;;;;;10421423;28;20369;-87
2022/04/03 13:18:15;;;;;;;5.93;3.80;;;9.50;24.00;;;;;;10443113;28;20200;-89
2022/04/03 13:23:36;;;;;;;2.70;1.80;;;9.00;24.50;;;;;;10466918;28;20227;-91
2022/04/03 13:28:58;;;;;;;4.83;2.77;;;8.40;24.60;;;;;;10482610;28;20271;-87
2022/04/03 13:34:19;;;;;;;9.83;4.17;;;8.20;24.50;;;;;;10480997;28;20216;-89
2022/04/03 13:39:40;;;;;;;6.53;2.73;;;8.40;24.80;;;;;;10460951;28;20202;-91
2022/04/03 13:45:01;;;;;;;10.37;5.40;;;8.60;25.20;;;;;;10438101;28;20227;-90
2022/04/03 13:50:22;;;;;;;20.60;7.93;;;8.20;24.90;;;;;;10436201;28;20269;-86
2022/04/03 13:55:44;;;;;;;9.27;4.73;;;7.80;25.70;;;;;;10424433;28;20240;-86
2022/04/03 14:01:08;;;;;;;13.53;6.70;;;7.40;26.80;;;;;;10437855;28;20432;-79
2022/04/03 14:06:30;;;;;;;8.07;2.77;;;7.30;27.70;;;;;;10408579;28;20227;-83
2022/04/03 14:11:52;;;;;;;14.23;6.53;;;7.30;28.10;;;;;;10431966;28;20270;-87
2022/04/03 14:17:14;;;;;;;13.53;5.10;;;7.20;28.30;;;;;;10438438;28;20190;-82
2022/04/03 14:22:36;;;;;;;7.63;4.13;;;7.30;28.10;;;;;;10476612;28;20186;-89
2022/04/03 14:28:04;;;;;;;10.53;4.00;;;7.40;28.60;;;;;;10504271;28;20225;-85
2022/04/03 14:33:29;;;;;;;6.40;2.90;;;7.50;28.70;;;;;;10514299;28;20191;-79
2022/04/03 14:38:59;;;;;;;10.20;3.57;;;7.50;28.40;;;;;;10473950;28;20233;-89
2022/04/03 14:44:21;;;;;;;7.17;3.27;;;7.60;29.20;;;;;;10418334;28;20270;-91
2022/04/03 14:49:42;;;;;;;5.67;1.40;;;7.60;28.80;;;;;;10417188;28;20209;-81
2022/04/03 14:55:05;;;;;;;1.20;1.10;;;7.60;26.90;;;;;;10418992;28;20233;-78
2022/04/03 15:00:43;;;;;;;2.70;1.40;;;7.70;26.00;;;;;;10423794;28;20196;-79
2022/04/03 15:06:04;;;;;;;3.10;1.87;;;7.60;26.00;;;;;;10443959;28;20265;-77
2022/04/03 15:11:30;;;;;;;6.37;1.90;;;7.40;26.00;;;;;;10412255;28;20596;-86
2022/04/03 15:16:52;;;;;;;5.53;2.57;;;7.10;26.20;;;;;;10417057;28;20205;-83
2022/04/03 15:22:15;;;;;;;7.83;3.30;;;7.00;26.90;;;;;;10403770;28;20522;-88
2022/04/03 15:27:37;;;;;;;6.13;3.10;;;6.60;27.40;;;;;;10399148;28;20309;-81
2022/04/03 15:32:59;;;;;;;10.53;3.30;;;6.40;28.10;;;;;;10415147;28;20211;-86
2022/04/03 15:38:22;;;;;;;7.13;2.43;;;6.40;28.30;;;;;;10402915;28;20194;-84
2022/04/03 15:43:44;;;;;;;4.07;1.50;;;6.70;28.10;;;;;;10342097;23;20240;-82
2022/04/03 15:49:07;;;;;;;3.27;1.90;;;6.90;27.30;;;;;;10294860;29;20197;-83
2022/04/03 15:54:28;;;;;;;4.20;2.10;;;6.90;26.30;;;;;;10283644;28;20192;-80
2022/04/03 15:59:50;;;;;;;3.53;2.03;;;6.70;26.40;;;;;;10288052;29;20264;-79
2022/04/03 16:05:26;;;;;;;2.43;1.50;;;6.60;26.90;;;;;;10303183;28;20236;-86
2022/04/03 16:10:48;;;;;;;2.40;1.27;;;6.60;27.50;;;;;;10301412;28;20199;-85
2022/04/03 16:16:12;;;;;;;9.00;2.30;;;6.50;27.80;;;;;;10278495;29;20195;-90
2022/04/03 16:21:34;;;;;;;1.87;1.03;;;6.50;27.70;;;;;;10296657;29;20184;-91
2022/04/03 16:26:57;;;;;;;2.40;1.03;;;6.40;27.10;;;;;;10296223;28;20256;-80
2022/04/03 16:32:18;;;;;;;4.30;1.80;;;6.10;27.60;;;;;;10292395;29;20170;-87
2022/04/03 16:37:44;;;;;;;6.73;2.17;;;5.90;28.40;;;;;;10295260;29;20197;-82
2022/04/03 16:43:08;;;;;;;3.53;2.10;;;5.70;29.00;;;;;;10321951;28;20228;-82
2022/04/03 16:48:30;;;;;;;1.63;0.83;;;5.60;29.50;;;;;;10313650;28;20221;-80
2022/04/03 16:53:51;;;;;;;4.33;2.20;;;5.60;30.00;;;;;;10312200;28;20262;-79
2022/04/03 16:59:13;;;;;;;7.33;3.60;;;5.50;30.30;;;;;;10320295;28;20219;-87
2022/04/03 17:04:37;;;;;;;7.33;4.13;;;5.40;31.00;;;;;;10306120;28;20205;-82
2022/04/03 17:09:59;;;;;;;13.90;7.63;;;5.30;31.80;;;;;;10311242;28;20184;-88
2022/04/03 17:15:34;;;;;;;8.80;4.97;;;5.30;32.40;;;;;;10304143;28;20195;-80
2022/04/03 17:20:56;;;;;;;7.57;2.73;;;5.20;32.90;;;;;;10315629;28;20195;-89
2022/04/03 17:26:25;;;;;;;2.80;1.57;;;5.10;33.40;;;;;;10319415;28;20232;-77
2022/04/03 17:31:47;;;;;;;1.63;1.27;;;5.00;33.80;;;;;;10332341;28;20245;-83
2022/04/03 17:37:14;;;;;;;2.87;1.93;;;5.00;34.40;;;;;;10316207;28;20203;-83
2022/04/03 17:42:35;;;;;;;5.50;2.43;;;4.80;35.20;;;;;;10311451;28;20258;-80
2022/04/03 17:47:57;;;;;;;6.17;2.67;;;4.70;36.20;;;;;;10316014;28;20219;-80
2022/04/03 17:53:18;;;;;;;4.67;2.63;;;4.60;36.30;;;;;;10317761;28;20375;-81
2022/04/03 17:58:41;;;;;;;7.23;3.60;;;4.60;36.80;;;;;;10329480;28;20248;-82
2022/04/03 18:04:05;;;;;;;18.27;6.97;;;4.50;37.60;;;;;;10335342;28;20194;-78
2022/04/03 18:09:31;;;;;;;14.60;8.33;;;4.40;38.30;;;;;;10336750;28;20262;-91
2022/04/03 18:14:53;;;;;;;27.63;12.53;;;4.30;39.10;;;;;;10305092;28;20196;-89
2022/04/03 18:20:16;;;;;;;27.03;14.23;;;4.20;40.10;;;;;;10324429;28;20191;-88
2022/04/03 18:25:53;;;;;;;32.63;16.03;;;4.00;41.70;;;;;;10320870;28;20234;-84
2022/04/03 18:31:17;;;;;;;70.13;30.53;;;3.90;43.80;;;;;;10316471;28;20271;-82
2022/04/03 18:36:43;;;;;;;86.23;38.37;;;3.70;46.40;;;;;;10291855;29;20195;-89
2022/04/03 18:42:08;;;;;;;66.30;33.33;;;3.50;50.40;;;;;;10327881;28;20234;-84
2022/04/03 18:47:32;;;;;;;73.17;33.67;;;3.40;52.10;;;;;;10323561;28;20226;-85
2022/04/03 18:53:02;;;;;;;64.23;31.83;;;3.40;55.50;;;;;;10347559;28;20188;-82
2022/04/03 18:58:26;;;;;;;60.43;29.27;;;3.30;58.20;;;;;;10315352;28;20205;-86
2022/04/03 19:03:49;;;;;;;53.97;24.87;;;3.30;61.40;;;;;;10302222;28;20196;-91
2022/04/03 19:09:12;;;;;;;77.00;36.63;;;3.20;61.70;;;;;;10306179;28;20243;-89
2022/04/03 19:14:35;;;;;;;140.27;62.60;;;3.20;62.90;;;;;;10280400;28;20240;-81
2022/04/03 19:19:58;;;;;;;204.10;88.53;;;3.00;68.40;;;;;;10306832;28;20426;-82
2022/04/03 19:25:21;;;;;;;154.43;67.67;;;2.70;77.60;;;;;;10322183;28;20218;-89
2022/04/03 19:30:54;;;;;;;113.83;55.07;;;2.60;84.30;;;;;;10324741;28;20222;-86
2022/04/03 19:36:22;;;;;;;96.70;46.00;;;2.50;86.20;;;;;;10319081;28;20202;-91
2022/04/03 19:41:45;;;;;;;77.03;38.70;;;2.50;88.30;;;;;;10300229;28;20264;-89
2022/04/03 19:47:07;;;;;;;75.80;34.90;;;2.40;89.30;;;;;;10327359;28;20225;-80
2022/04/03 19:52:29;;;;;;;94.43;37.53;;;2.50;89.90;;;;;;10327981;28;20196;-84
2022/04/03 19:57:55;;;;;;;89.67;32.90;;;2.50;88.30;;;;;;10312979;28;20246;-87
2022/04/03 20:03:19;;;;;;;45.57;20.83;;;2.60;86.60;;;;;;10298629;28;20200;-89
2022/04/03 20:08:43;;;;;;;47.23;19.90;;;2.60;85.50;;;;;;10302520;28;20230;-86
2022/04/03 20:14:07;;;;;;;43.63;17.03;;;2.60;85.20;;;;;;10336162;28;20205;-89
2022/04/03 20:19:28;;;;;;;30.70;15.10;;;2.50;86.70;;;;;;10346491;28;20181;-88
2022/04/03 20:24:52;;;;;;;22.43;12.53;;;2.60;88.10;;;;;;10343498;28;20190;-87
2022/04/03 20:30:14;;;;;;;34.53;16.80;;;2.70;86.80;;;;;;10318353;28;20198;-90
2022/04/03 20:35:47;;;;;;;22.17;11.17;;;2.80;84.40;;;;;;10323557;28;20188;-91
2022/04/03 20:41:15;;;;;;;19.00;8.60;;;2.90;84.50;;;;;;10309527;28;20237;-88
2022/04/03 20:46:37;;;;;;;17.60;9.30;;;2.90;85.40;;;;;;10328899;28;20220;-86
2022/04/03 20:51:59;;;;;;;15.87;8.60;;;2.90;84.80;;;;;;10328584;28;20229;-80
2022/04/03 20:57:21;;;;;;;22.50;10.57;;;3.00;86.50;;;;;;10336465;28;20187;-83
2022/04/03 21:02:43;;;;;;;22.70;12.27;;;3.00;85.70;;;;;;10282449;28;20190;-88
2022/04/03 21:08:30;;;;;;;20.77;10.70;;;3.00;85.30;;;;;;10329304;28;20209;-87
2022/04/03 21:13:58;;;;;;;18.80;9.17;;;3.10;85.20;;;;;;10314348;28;20181;-87
2022/04/03 21:19:24;;;;;;;19.97;8.90;;;3.10;85.50;;;;;;10343141;28;20204;-90
2022/04/03 21:24:48;;;;;;;16.37;7.07;;;3.20;82.60;;;;;;10358733;28;20206;-92
2022/04/03 21:30:19;;;;;;;12.50;5.70;;;3.20;84.10;;;;;;10313314;28;20273;-84
2022/04/03 21:35:44;;;;;;;7.00;3.87;;;3.20;96.20;;;;;;10325149;28;20282;-80
2022/04/03 21:41:06;;;;;;;5.87;3.57;;;3.30;99.90;;;;;;10332844;28;20474;-80
2022/04/03 21:46:27;;;;;;;13.17;5.90;;;3.10;99.90;;;;;;10317964;28;20220;-83
2022/04/03 21:51:49;;;;;;;15.97;7.67;;;3.00;99.90;;;;;;10318590;28;20200;-86
2022/04/03 21:57:10;;;;;;;19.37;7.77;;;3.00;99.90;;;;;;10303856;28;20204;-88
2022/04/03 22:02:32;;;;;;;13.70;6.97;;;3.00;99.90;;;;;;10325386;28;20190;-89
2022/04/03 22:07:53;;;;;;;11.27;6.57;;;2.90;99.90;;;;;;10323286;28;20555;-90
2022/04/03 22:13:14;;;;;;;15.40;6.90;;;2.90;99.90;;;;;;10308347;28;20195;-90
2022/04/03 22:18:36;;;;;;;9.67;6.00;;;2.90;99.90;;;;;;10311680;28;20517;-85
2022/04/03 22:23:57;;;;;;;10.20;5.30;;;2.80;99.90;;;;;;10355235;28;20466;-84
2022/04/03 22:29:19;;;;;;;20.43;8.77;;;2.90;99.90;;;;;;10322140;28;20222;-81
2022/04/03 22:34:42;;;;;;;39.27;15.87;;;3.10;99.90;;;;;;10308463;28;20221;-91
2022/04/03 22:40:04;;;;;;;30.07;12.43;;;3.10;99.90;;;;;;10322135;28;20445;-89
2022/04/03 22:45:25;;;;;;;11.30;5.33;;;3.10;99.90;;;;;;10304495;28;20462;-86
2022/04/03 22:50:47;;;;;;;84.67;30.03;;;3.00;99.90;;;;;;10304548;28;20213;-89
2022/04/03 22:56:11;;;;;;;38.73;15.00;;;2.90;99.90;;;;;;10290748;28;20195;-86
2022/04/03 23:01:35;;;;;;;30.07;10.43;;;2.90;99.90;;;;;;10291031;28;20207;-90
2022/04/03 23:06:56;;;;;;;16.10;6.43;;;2.90;99.90;;;;;;10293388;28;20252;-89
2022/04/03 23:12:17;;;;;;;8.43;3.90;;;2.90;99.90;;;;;;10322351;28;20260;-89
2022/04/03 23:17:39;;;;;;;10.10;5.00;;;2.80;99.90;;;;;;10291077;28;20205;-90
2022/04/03 23:23:00;;;;;;;11.10;4.83;;;2.80;99.90;;;;;;10372721;28;20235;-87
2022/04/03 23:28:22;;;;;;;10.83;5.80;;;2.80;99.90;;;;;;10276305;29;20229;-85
2022/04/03 23:33:44;;;;;;;8.43;3.70;;;2.80;99.90;;;;;;10265166;29;20277;-90
2022/04/03 23:39:05;;;;;;;7.13;3.20;;;2.80;99.90;;;;;;10292835;28;20204;-88
2022/04/03 23:44:26;;;;;;;7.30;3.57;;;2.70;99.90;;;;;;10319524;28;20229;-86
2022/04/03 23:49:47;;;;;;;6.87;3.30;;;2.80;99.90;;;;;;10279539;28;20436;-89
2022/04/03 23:55:10;;;;;;;3.47;2.60;;;2.80;99.90;;;;;;10297285;28;20198;-90
